sensor_id;sensor_type;location;lat;lon;timestamp;temperature;humidity
34927;DHT22;21132;48.308;14.274;2023-04-03T00:00:33;9.90;51.40
34927;DHT22;21132;48.308;14.274;2023-04-03T00:02:59;9.90;51.70
34927;DHT22;21132;48.308;14.274;2023-04-03T00:05:25;10.00;52.10
34927;DHT22;21132;48.308;14.274;2023-04-03T00:07:51;10.00;52.20
34927;DHT22;21132;48.308;14.274;2023-04-03T00:10:17;10.10;51.90
34927;DHT22;21132;48.308;14.274;2023-04-03T00:12:43;10.10;51.90
34927;DHT22;21132;48.308;14.274;2023-04-03T00:15:10;10.20;52.00
34927;DHT22;21132;48.308;14.274;2023-04-03T00:17:36;10.20;51.90
34927;DHT22;21132;48.308;14.274;2023-04-03T00:20:03;10.30;51.70
34927;DHT22;21132;48.308;14.274;2023-04-03T00:22:29;10.30;51.70
34927;DHT22;21132;48.308;14.274;2023-04-03T00:24:55;10.30;51.60
34927;DHT22;21132;48.308;14.274;2023-04-03T00:27:21;10.30;51.80
34927;DHT22;21132;48.308;14.274;2023-04-03T00:29:47;10.30;51.90
34927;DHT22;21132;48.308;14.274;2023-04-03T00:32:13;10.30;51.60
34927;DHT22;21132;48.308;14.274;2023-04-03T00:34:39;10.40;51.40
34927;DHT22;21132;48.308;14.274;2023-04-03T00:37:05;10.40;51.60
34927;DHT22;21132;48.308;14.274;2023-04-03T00:39:30;10.40;51.80
34927;DHT22;21132;48.308;14.274;2023-04-03T00:41:57;10.40;51.60
34927;DHT22;21132;48.308;14.274;2023-04-03T00:47:01;10.40;51.30
34927;DHT22;21132;48.308;14.274;2023-04-03T00:49:29;10.40;51.20
34927;DHT22;21132;48.308;14.274;2023-04-03T00:51:56;10.40;51.10
34927;DHT22;21132;48.308;14.274;2023-04-03T00:54:22;10.40;50.80
34927;DHT22;21132;48.308;14.274;2023-04-03T00:56:51;10.30;50.00
34927;DHT22;21132;48.308;14.274;2023-04-03T00:59:21;10.30;49.60
34927;DHT22;21132;48.308;14.274;2023-04-03T01:01:52;10.30;50.00
34927;DHT22;21132;48.308;14.274;2023-04-03T01:04:33;10.30;50.50
34927;DHT22;21132;48.308;14.274;2023-04-03T01:07:21;10.30;50.70
34927;DHT22;21132;48.308;14.274;2023-04-03T01:09:49;10.30;50.20
34927;DHT22;21132;48.308;14.274;2023-04-03T01:12:22;10.20;49.40
34927;DHT22;21132;48.308;14.274;2023-04-03T01:14:51;10.20;50.10
34927;DHT22;21132;48.308;14.274;2023-04-03T01:17:34;10.20;50.50
34927;DHT22;21132;48.308;14.274;2023-04-03T01:25:41;10.30;51.00
34927;DHT22;21132;48.308;14.274;2023-04-03T01:28:10;10.20;50.40
34927;DHT22;21132;48.308;14.274;2023-04-03T01:30:53;10.20;50.30
34927;DHT22;21132;48.308;14.274;2023-04-03T01:33:22;10.20;50.40
34927;DHT22;21132;48.308;14.274;2023-04-03T01:35:47;10.20;51.00
34927;DHT22;21132;48.308;14.274;2023-04-03T01:38:13;10.20;50.70
34927;DHT22;21132;48.308;14.274;2023-04-03T01:40:39;10.20;50.80
34927;DHT22;21132;48.308;14.274;2023-04-03T01:43:05;10.20;50.80
34927;DHT22;21132;48.308;14.274;2023-04-03T01:45:31;10.30;50.80
34927;DHT22;21132;48.308;14.274;2023-04-03T01:47:56;10.30;50.70
34927;DHT22;21132;48.308;14.274;2023-04-03T01:50:22;10.20;50.90
34927;DHT22;21132;48.308;14.274;2023-04-03T01:52:48;10.20;50.90
34927;DHT22;21132;48.308;14.274;2023-04-03T01:55:14;10.20;50.50
34927;DHT22;21132;48.308;14.274;2023-04-03T01:57:40;10.20;50.20
34927;DHT22;21132;48.308;14.274;2023-04-03T02:00:06;10.10;50.10
34927;DHT22;21132;48.308;14.274;2023-04-03T02:02:33;10.10;50.30
34927;DHT22;21132;48.308;14.274;2023-04-03T02:04:59;10.00;50.40
34927;DHT22;21132;48.308;14.274;2023-04-03T02:07:24;10.00;49.90
34927;DHT22;21132;48.308;14.274;2023-04-03T02:09:51;9.90;50.00
34927;DHT22;21132;48.308;14.274;2023-04-03T02:12:16;9.90;50.00
34927;DHT22;21132;48.308;14.274;2023-04-03T02:14:42;9.90;50.20
34927;DHT22;21132;48.308;14.274;2023-04-03T02:17:08;9.90;50.60
34927;DHT22;21132;48.308;14.274;2023-04-03T02:19:37;9.90;50.40
34927;DHT22;21132;48.308;14.274;2023-04-03T02:22:04;9.90;50.60
34927;DHT22;21132;48.308;14.274;2023-04-03T02:24:30;9.90;50.60
34927;DHT22;21132;48.308;14.274;2023-04-03T02:26:56;9.90;50.70
34927;DHT22;21132;48.308;14.274;2023-04-03T02:29:22;9.90;51.00
34927;DHT22;21132;48.308;14.274;2023-04-03T02:31:49;10.00;51.30
34927;DHT22;21132;48.308;14.274;2023-04-03T02:34:16;10.00;51.30
34927;DHT22;21132;48.308;14.274;2023-04-03T02:36:42;10.00;51.20
34927;DHT22;21132;48.308;14.274;2023-04-03T02:39:08;10.00;50.70
34927;DHT22;21132;48.308;14.274;2023-04-03T02:41:33;10.00;50.70
34927;DHT22;21132;48.308;14.274;2023-04-03T02:44:05;10.00;50.70
34927;DHT22;21132;48.308;14.274;2023-04-03T02:46:31;10.00;50.70
34927;DHT22;21132;48.308;14.274;2023-04-03T02:48:57;9.90;50.50
34927;DHT22;21132;48.308;14.274;2023-04-03T02:51:23;9.90;50.30
34927;DHT22;21132;48.308;14.274;2023-04-03T02:53:50;9.80;50.00
34927;DHT22;21132;48.308;14.274;2023-04-03T02:56:16;9.80;50.30
34927;DHT22;21132;48.308;14.274;2023-04-03T02:58:43;9.80;50.70
34927;DHT22;21132;48.308;14.274;2023-04-03T03:01:09;9.80;50.70
34927;DHT22;21132;48.308;14.274;2023-04-03T03:03:36;9.80;50.60
34927;DHT22;21132;48.308;14.274;2023-04-03T03:06:13;9.80;50.60
34927;DHT22;21132;48.308;14.274;2023-04-03T03:08:40;9.80;50.90
34927;DHT22;21132;48.308;14.274;2023-04-03T03:11:06;9.80;51.10
34927;DHT22;21132;48.308;14.274;2023-04-03T03:13:32;9.80;51.20
34927;DHT22;21132;48.308;14.274;2023-04-03T03:15:58;9.80;51.00
34927;DHT22;21132;48.308;14.274;2023-04-03T03:18:24;9.90;51.00
34927;DHT22;21132;48.308;14.274;2023-04-03T03:20:58;9.90;51.00
34927;DHT22;21132;48.308;14.274;2023-04-03T03:23:25;9.90;50.40
34927;DHT22;21132;48.308;14.274;2023-04-03T03:25:59;9.80;50.40
34927;DHT22;21132;48.308;14.274;2023-04-03T03:28:25;9.90;50.70
34927;DHT22;21132;48.308;14.274;2023-04-03T03:30:51;9.90;51.30
34927;DHT22;21132;48.308;14.274;2023-04-03T03:33:18;9.90;50.60
34927;DHT22;21132;48.308;14.274;2023-04-03T03:35:44;9.80;50.20
34927;DHT22;21132;48.308;14.274;2023-04-03T03:38:10;9.80;50.30
34927;DHT22;21132;48.308;14.274;2023-04-03T03:40:36;9.70;50.30
34927;DHT22;21132;48.308;14.274;2023-04-03T03:43:02;9.60;50.30
34927;DHT22;21132;48.308;14.274;2023-04-03T03:45:28;9.60;50.30
34927;DHT22;21132;48.308;14.274;2023-04-03T03:47:53;9.50;50.00
34927;DHT22;21132;48.308;14.274;2023-04-03T03:50:19;9.40;50.20
34927;DHT22;21132;48.308;14.274;2023-04-03T03:52:45;9.40;50.50
34927;DHT22;21132;48.308;14.274;2023-04-03T03:55:12;9.30;50.70
34927;DHT22;21132;48.308;14.274;2023-04-03T03:57:37;9.30;50.70
34927;DHT22;21132;48.308;14.274;2023-04-03T04:00:04;9.30;50.80
34927;DHT22;21132;48.308;14.274;2023-04-03T04:02:30;9.20;51.00
34927;DHT22;21132;48.308;14.274;2023-04-03T04:04:56;9.20;51.30
34927;DHT22;21132;48.308;14.274;2023-04-03T04:07:22;9.20;51.50
34927;DHT22;21132;48.308;14.274;2023-04-03T04:09:47;9.10;51.50
34927;DHT22;21132;48.308;14.274;2023-04-03T04:12:13;9.10;51.60
34927;DHT22;21132;48.308;14.274;2023-04-03T04:14:39;9.10;51.80
34927;DHT22;21132;48.308;14.274;2023-04-03T04:17:06;9.10;51.90
34927;DHT22;21132;48.308;14.274;2023-04-03T04:19:31;9.10;51.80
34927;DHT22;21132;48.308;14.274;2023-04-03T04:21:58;9.10;51.80
34927;DHT22;21132;48.308;14.274;2023-04-03T04:24:24;9.10;51.80
34927;DHT22;21132;48.308;14.274;2023-04-03T04:26:50;9.10;52.00
34927;DHT22;21132;48.308;14.274;2023-04-03T04:29:16;9.10;51.90
34927;DHT22;21132;48.308;14.274;2023-04-03T04:31:42;9.10;51.80
34927;DHT22;21132;48.308;14.274;2023-04-03T04:34:07;9.20;51.90
34927;DHT22;21132;48.308;14.274;2023-04-03T04:36:33;9.20;52.00
34927;DHT22;21132;48.308;14.274;2023-04-03T04:38:59;9.20;52.20
34927;DHT22;21132;48.308;14.274;2023-04-03T04:41:25;9.20;52.30
34927;DHT22;21132;48.308;14.274;2023-04-03T04:43:52;9.20;52.00
34927;DHT22;21132;48.308;14.274;2023-04-03T04:46:18;9.30;52.20
34927;DHT22;21132;48.308;14.274;2023-04-03T04:48:44;9.30;52.20
34927;DHT22;21132;48.308;14.274;2023-04-03T04:51:11;9.20;51.90
34927;DHT22;21132;48.308;14.274;2023-04-03T04:53:37;9.20;51.80
34927;DHT22;21132;48.308;14.274;2023-04-03T04:56:03;9.20;51.80
34927;DHT22;21132;48.308;14.274;2023-04-03T04:58:29;9.20;51.80
34927;DHT22;21132;48.308;14.274;2023-04-03T05:01:06;9.20;51.90
34927;DHT22;21132;48.308;14.274;2023-04-03T05:03:32;9.20;52.20
34927;DHT22;21132;48.308;14.274;2023-04-03T05:05:59;9.20;52.30
34927;DHT22;21132;48.308;14.274;2023-04-03T05:08:25;9.30;52.60
34927;DHT22;21132;48.308;14.274;2023-04-03T05:10:51;9.30;52.20
34927;DHT22;21132;48.308;14.274;2023-04-03T05:13:18;9.30;51.80
34927;DHT22;21132;48.308;14.274;2023-04-03T05:15:45;9.20;51.70
34927;DHT22;21132;48.308;14.274;2023-04-03T05:18:11;9.20;51.70
34927;DHT22;21132;48.308;14.274;2023-04-03T05:20:37;9.20;51.40
34927;DHT22;21132;48.308;14.274;2023-04-03T05:23:03;9.20;51.40
34927;DHT22;21132;48.308;14.274;2023-04-03T05:25:28;9.20;51.30
34927;DHT22;21132;48.308;14.274;2023-04-03T05:27:55;9.20;51.40
34927;DHT22;21132;48.308;14.274;2023-04-03T05:30:21;9.20;51.70
34927;DHT22;21132;48.308;14.274;2023-04-03T05:32:47;9.30;51.50
34927;DHT22;21132;48.308;14.274;2023-04-03T05:35:13;9.30;51.40
34927;DHT22;21132;48.308;14.274;2023-04-03T05:37:40;9.30;51.20
34927;DHT22;21132;48.308;14.274;2023-04-03T05:40:06;9.30;51.40
34927;DHT22;21132;48.308;14.274;2023-04-03T05:42:32;9.40;51.60
34927;DHT22;21132;48.308;14.274;2023-04-03T05:44:58;9.40;51.40
34927;DHT22;21132;48.308;14.274;2023-04-03T05:47:25;9.50;51.30
34927;DHT22;21132;48.308;14.274;2023-04-03T05:49:51;9.40;51.00
34927;DHT22;21132;48.308;14.274;2023-04-03T05:52:30;9.40;51.00
34927;DHT22;21132;48.308;14.274;2023-04-03T05:54:57;9.40;50.80
34927;DHT22;21132;48.308;14.274;2023-04-03T05:57:23;9.50;50.80
34927;DHT22;21132;48.308;14.274;2023-04-03T05:59:49;9.40;50.50
34927;DHT22;21132;48.308;14.274;2023-04-03T06:02:18;9.40;50.80
34927;DHT22;21132;48.308;14.274;2023-04-03T06:04:45;9.50;50.70
34927;DHT22;21132;48.308;14.274;2023-04-03T06:07:16;9.50;50.70
34927;DHT22;21132;48.308;14.274;2023-04-03T06:09:43;9.50;50.80
34927;DHT22;21132;48.308;14.274;2023-04-03T06:12:09;9.50;50.50
34927;DHT22;21132;48.308;14.274;2023-04-03T06:14:35;9.50;50.20
34927;DHT22;21132;48.308;14.274;2023-04-03T06:17:01;9.40;49.90
34927;DHT22;21132;48.308;14.274;2023-04-03T06:19:27;9.40;50.10
34927;DHT22;21132;48.308;14.274;2023-04-03T06:21:54;9.40;50.70
34927;DHT22;21132;48.308;14.274;2023-04-03T06:24:20;9.40;50.50
34927;DHT22;21132;48.308;14.274;2023-04-03T06:26:48;9.40;50.80
34927;DHT22;21132;48.308;14.274;2023-04-03T06:29:15;9.30;50.60
34927;DHT22;21132;48.308;14.274;2023-04-03T06:31:41;9.30;51.00
34927;DHT22;21132;48.308;14.274;2023-04-03T06:34:07;9.30;51.30
34927;DHT22;21132;48.308;14.274;2023-04-03T06:36:33;9.30;51.80
34927;DHT22;21132;48.308;14.274;2023-04-03T06:38:58;9.30;52.10
34927;DHT22;21132;48.308;14.274;2023-04-03T06:41:25;9.30;52.10
34927;DHT22;21132;48.308;14.274;2023-04-03T06:43:51;9.30;52.10
34927;DHT22;21132;48.308;14.274;2023-04-03T06:46:19;9.30;52.50
34927;DHT22;21132;48.308;14.274;2023-04-03T06:48:49;9.40;52.80
34927;DHT22;21132;48.308;14.274;2023-04-03T06:51:19;9.50;52.90
34927;DHT22;21132;48.308;14.274;2023-04-03T06:53:47;9.50;52.80
34927;DHT22;21132;48.308;14.274;2023-04-03T06:56:13;9.60;52.60
34927;DHT22;21132;48.308;14.274;2023-04-03T06:58:39;9.60;52.80
34927;DHT22;21132;48.308;14.274;2023-04-03T07:01:06;9.60;53.00
34927;DHT22;21132;48.308;14.274;2023-04-03T07:03:32;9.60;53.00
34927;DHT22;21132;48.308;14.274;2023-04-03T07:05:58;9.70;53.00
34927;DHT22;21132;48.308;14.274;2023-04-03T07:08:23;9.80;53.20
34927;DHT22;21132;48.308;14.274;2023-04-03T07:10:51;9.90;53.20
34927;DHT22;21132;48.308;14.274;2023-04-03T07:13:17;9.90;53.10
34927;DHT22;21132;48.308;14.274;2023-04-03T07:15:43;10.00;52.90
34927;DHT22;21132;48.308;14.274;2023-04-03T07:18:09;10.00;52.60
34927;DHT22;21132;48.308;14.274;2023-04-03T07:20:35;9.90;52.30
34927;DHT22;21132;48.308;14.274;2023-04-03T07:23:01;9.80;52.90
34927;DHT22;21132;48.308;14.274;2023-04-03T07:25:28;9.80;53.80
34927;DHT22;21132;48.308;14.274;2023-04-03T07:27:54;9.70;54.10
34927;DHT22;21132;48.308;14.274;2023-04-03T07:30:20;9.60;53.80
34927;DHT22;21132;48.308;14.274;2023-04-03T07:32:46;9.50;54.00
34927;DHT22;21132;48.308;14.274;2023-04-03T07:35:13;9.40;54.00
34927;DHT22;21132;48.308;14.274;2023-04-03T07:37:38;9.20;53.30
34927;DHT22;21132;48.308;14.274;2023-04-03T07:40:06;9.00;53.60
34927;DHT22;21132;48.308;14.274;2023-04-03T07:42:32;9.00;54.00
34927;DHT22;21132;48.308;14.274;2023-04-03T07:44:58;8.90;54.20
34927;DHT22;21132;48.308;14.274;2023-04-03T07:47:23;8.90;54.60
34927;DHT22;21132;48.308;14.274;2023-04-03T07:49:50;8.90;54.80
34927;DHT22;21132;48.308;14.274;2023-04-03T07:52:15;9.00;55.10
34927;DHT22;21132;48.308;14.274;2023-04-03T07:54:42;9.00;55.20
34927;DHT22;21132;48.308;14.274;2023-04-03T07:57:07;9.10;55.30
34927;DHT22;21132;48.308;14.274;2023-04-03T07:59:34;9.20;55.30
34927;DHT22;21132;48.308;14.274;2023-04-03T08:02:00;9.30;55.20
34927;DHT22;21132;48.308;14.274;2023-04-03T08:04:25;9.50;55.20
34927;DHT22;21132;48.308;14.274;2023-04-03T08:06:52;9.60;54.60
34927;DHT22;21132;48.308;14.274;2023-04-03T08:09:18;9.60;54.10
34927;DHT22;21132;48.308;14.274;2023-04-03T08:11:45;9.80;54.10
34927;DHT22;21132;48.308;14.274;2023-04-03T08:14:12;9.90;53.50
34927;DHT22;21132;48.308;14.274;2023-04-03T08:16:43;9.90;52.80
34927;DHT22;21132;48.308;14.274;2023-04-03T08:19:09;10.00;53.00
34927;DHT22;21132;48.308;14.274;2023-04-03T08:21:36;10.20;53.30
34927;DHT22;21132;48.308;14.274;2023-04-03T08:24:02;10.20;52.70
34927;DHT22;21132;48.308;14.274;2023-04-03T08:26:28;10.40;52.70
34927;DHT22;21132;48.308;14.274;2023-04-03T08:28:54;10.50;52.90
34927;DHT22;21132;48.308;14.274;2023-04-03T08:31:20;10.70;52.90
34927;DHT22;21132;48.308;14.274;2023-04-03T08:33:46;10.80;51.80
34927;DHT22;21132;48.308;14.274;2023-04-03T08:36:27;10.90;50.60
34927;DHT22;21132;48.308;14.274;2023-04-03T08:38:54;11.00;51.20
34927;DHT22;21132;48.308;14.274;2023-04-03T08:41:39;11.10;49.40
34927;DHT22;21132;48.308;14.274;2023-04-03T08:44:31;11.00;44.30
34927;DHT22;21132;48.308;14.274;2023-04-03T08:47:16;10.80;46.30
34927;DHT22;21132;48.308;14.274;2023-04-03T08:49:53;10.80;46.70
34927;DHT22;21132;48.308;14.274;2023-04-03T08:52:42;10.80;45.20
34927;DHT22;21132;48.308;14.274;2023-04-03T08:55:30;10.80;45.00
34927;DHT22;21132;48.308;14.274;2023-04-03T08:58:16;10.90;46.70
34927;DHT22;21132;48.308;14.274;2023-04-03T09:00:50;11.00;44.20
34927;DHT22;21132;48.308;14.274;2023-04-03T09:03:19;10.90;43.80
34927;DHT22;21132;48.308;14.274;2023-04-03T09:08:23;10.90;43.80
34927;DHT22;21132;48.308;14.274;2023-04-03T09:11:21;10.90;44.30
34927;DHT22;21132;48.308;14.274;2023-04-03T09:13:51;11.00;44.50
34927;DHT22;21132;48.308;14.274;2023-04-03T09:16:31;11.10;45.70
34927;DHT22;21132;48.308;14.274;2023-04-03T09:21:46;11.00;41.70
34927;DHT22;21132;48.308;14.274;2023-04-03T09:24:14;10.90;41.70
34927;DHT22;21132;48.308;14.274;2023-04-03T09:26:59;10.80;42.20
34927;DHT22;21132;48.308;14.274;2023-04-03T09:29:28;10.70;42.80
34927;DHT22;21132;48.308;14.274;2023-04-03T09:32:02;10.70;43.00
34927;DHT22;21132;48.308;14.274;2023-04-03T09:34:40;10.70;40.70
34927;DHT22;21132;48.308;14.274;2023-04-03T09:37:07;10.60;40.60
34927;DHT22;21132;48.308;14.274;2023-04-03T09:39:52;10.60;40.30
34927;DHT22;21132;48.308;14.274;2023-04-03T09:42:23;10.50;41.60
34927;DHT22;21132;48.308;14.274;2023-04-03T09:44:58;10.60;41.80
34927;DHT22;21132;48.308;14.274;2023-04-03T09:47:33;10.60;41.90
34927;DHT22;21132;48.308;14.274;2023-04-03T09:50:21;10.60;41.70
34927;DHT22;21132;48.308;14.274;2023-04-03T09:52:50;10.60;40.40
34927;DHT22;21132;48.308;14.274;2023-04-03T09:55:43;10.50;40.60
34927;DHT22;21132;48.308;14.274;2023-04-03T09:58:38;10.50;40.50
34927;DHT22;21132;48.308;14.274;2023-04-03T10:01:06;10.50;41.80
34927;DHT22;21132;48.308;14.274;2023-04-03T10:03:34;10.50;40.40
34927;DHT22;21132;48.308;14.274;2023-04-03T10:06:02;10.50;40.90
34927;DHT22;21132;48.308;14.274;2023-04-03T10:08:34;10.50;40.50
34927;DHT22;21132;48.308;14.274;2023-04-03T10:11:13;10.50;39.60
34927;DHT22;21132;48.308;14.274;2023-04-03T10:13:54;10.50;39.30
34927;DHT22;21132;48.308;14.274;2023-04-03T10:34:44;10.60;41.40
34927;DHT22;21132;48.308;14.274;2023-04-03T10:42:50;10.60;39.00
34927;DHT22;21132;48.308;14.274;2023-04-03T10:56:10;10.70;40.00
34927;DHT22;21132;48.308;14.274;2023-04-03T10:58:44;10.70;39.40
34927;DHT22;21132;48.308;14.274;2023-04-03T11:01:20;10.60;39.50
34927;DHT22;21132;48.308;14.274;2023-04-03T11:03:56;10.60;39.60
34927;DHT22;21132;48.308;14.274;2023-04-03T11:06:26;10.50;39.90
34927;DHT22;21132;48.308;14.274;2023-04-03T11:08:59;10.40;39.60
34927;DHT22;21132;48.308;14.274;2023-04-03T11:11:33;10.30;39.30
34927;DHT22;21132;48.308;14.274;2023-04-03T11:14:32;10.30;39.50
34927;DHT22;21132;48.308;14.274;2023-04-03T11:17:23;10.20;40.00
34927;DHT22;21132;48.308;14.274;2023-04-03T11:22:37;10.20;41.00
34927;DHT22;21132;48.308;14.274;2023-04-03T11:27:45;10.20;41.00
34927;DHT22;21132;48.308;14.274;2023-04-03T11:30:56;10.20;41.30
34927;DHT22;21132;48.308;14.274;2023-04-03T11:37:04;10.30;40.00
34927;DHT22;21132;48.308;14.274;2023-04-03T11:39:39;10.30;40.00
34927;DHT22;21132;48.308;14.274;2023-04-03T11:42:38;10.40;40.00
34927;DHT22;21132;48.308;14.274;2023-04-03T11:47:54;10.50;37.80
34927;DHT22;21132;48.308;14.274;2023-04-03T11:50:37;10.60;38.00
34927;DHT22;21132;48.308;14.274;2023-04-03T12:08:43;10.60;37.00
34927;DHT22;21132;48.308;14.274;2023-04-03T12:19:31;10.50;36.20
34927;DHT22;21132;48.308;14.274;2023-04-03T12:24:39;10.60;36.60
34927;DHT22;21132;48.308;14.274;2023-04-03T12:32:15;10.60;35.80
34927;DHT22;21132;48.308;14.274;2023-04-03T12:43:01;10.80;35.70
34927;DHT22;21132;48.308;14.274;2023-04-03T12:45:41;11.00;36.30
34927;DHT22;21132;48.308;14.274;2023-04-03T12:48:15;11.20;36.30
34927;DHT22;21132;48.308;14.274;2023-04-03T12:50:41;11.30;35.50
34927;DHT22;21132;48.308;14.274;2023-04-03T12:53:16;11.40;35.20
34927;DHT22;21132;48.308;14.274;2023-04-03T12:55:43;11.40;35.20
34927;DHT22;21132;48.308;14.274;2023-04-03T13:01:16;11.60;35.00
34927;DHT22;21132;48.308;14.274;2023-04-03T13:03:47;11.50;33.50
34927;DHT22;21132;48.308;14.274;2023-04-03T13:06:43;11.50;33.30
34927;DHT22;21132;48.308;14.274;2023-04-03T13:09:37;11.50;33.70
34927;DHT22;21132;48.308;14.274;2023-04-03T13:12:13;11.50;32.90
34927;DHT22;21132;48.308;14.274;2023-04-03T13:14:40;11.60;33.80
34927;DHT22;21132;48.308;14.274;2023-04-03T13:17:10;11.60;34.20
34927;DHT22;21132;48.308;14.274;2023-04-03T13:19:38;11.60;34.40
34927;DHT22;21132;48.308;14.274;2023-04-03T13:22:11;11.60;34.10
34927;DHT22;21132;48.308;14.274;2023-04-03T13:24:43;11.60;34.30
34927;DHT22;21132;48.308;14.274;2023-04-03T13:27:11;11.60;34.10
34927;DHT22;21132;48.308;14.274;2023-04-03T13:29:38;11.60;33.50
34927;DHT22;21132;48.308;14.274;2023-04-03T13:32:05;11.60;32.70
34927;DHT22;21132;48.308;14.274;2023-04-03T13:34:42;11.70;32.90
34927;DHT22;21132;48.308;14.274;2023-04-03T13:37:25;11.60;32.10
34927;DHT22;21132;48.308;14.274;2023-04-03T13:40:02;11.70;32.30
34927;DHT22;21132;48.308;14.274;2023-04-03T13:42:32;11.70;32.90
34927;DHT22;21132;48.308;14.274;2023-04-03T13:47:44;11.90;32.90
34927;DHT22;21132;48.308;14.274;2023-04-03T13:50:22;11.90;32.30
34927;DHT22;21132;48.308;14.274;2023-04-03T13:53:01;11.90;32.20
34927;DHT22;21132;48.308;14.274;2023-04-03T13:55:30;11.90;32.40
34927;DHT22;21132;48.308;14.274;2023-04-03T13:57:58;11.80;32.00
34927;DHT22;21132;48.308;14.274;2023-04-03T14:03:01;11.70;31.60
34927;DHT22;21132;48.308;14.274;2023-04-03T14:05:33;11.70;31.40
34927;DHT22;21132;48.308;14.274;2023-04-03T14:08:01;11.70;31.60
34927;DHT22;21132;48.308;14.274;2023-04-03T14:10:27;11.60;31.90
34927;DHT22;21132;48.308;14.274;2023-04-03T14:12:53;11.50;32.40
34927;DHT22;21132;48.308;14.274;2023-04-03T14:15:25;11.50;33.20
34927;DHT22;21132;48.308;14.274;2023-04-03T14:17:52;11.50;32.10
34927;DHT22;21132;48.308;14.274;2023-04-03T14:20:21;11.50;32.10
34927;DHT22;21132;48.308;14.274;2023-04-03T14:22:47;11.40;31.60
34927;DHT22;21132;48.308;14.274;2023-04-03T14:25:15;11.40;31.20
34927;DHT22;21132;48.308;14.274;2023-04-03T14:27:49;11.40;31.50
34927;DHT22;21132;48.308;14.274;2023-04-03T14:30:19;11.30;31.10
34927;DHT22;21132;48.308;14.274;2023-04-03T14:32:46;11.30;31.90
34927;DHT22;21132;48.308;14.274;2023-04-03T14:35:13;11.20;32.70
34927;DHT22;21132;48.308;14.274;2023-04-03T14:37:40;11.20;33.00
34927;DHT22;21132;48.308;14.274;2023-04-03T14:40:08;11.10;33.30
34927;DHT22;21132;48.308;14.274;2023-04-03T14:42:36;11.10;33.00
34927;DHT22;21132;48.308;14.274;2023-04-03T14:45:05;11.00;32.70
34927;DHT22;21132;48.308;14.274;2023-04-03T14:47:32;11.00;33.10
34927;DHT22;21132;48.308;14.274;2023-04-03T14:50:04;10.90;31.70
34927;DHT22;21132;48.308;14.274;2023-04-03T14:52:34;10.80;32.00
34927;DHT22;21132;48.308;14.274;2023-04-03T14:55:01;10.80;32.10
34927;DHT22;21132;48.308;14.274;2023-04-03T14:57:29;10.80;32.40
34927;DHT22;21132;48.308;14.274;2023-04-03T14:59:55;10.70;32.80
34927;DHT22;21132;48.308;14.274;2023-04-03T15:02:36;10.60;32.00
34927;DHT22;21132;48.308;14.274;2023-04-03T15:05:05;10.50;31.60
34927;DHT22;21132;48.308;14.274;2023-04-03T15:07:37;10.50;32.60
34927;DHT22;21132;48.308;14.274;2023-04-03T15:10:26;10.40;33.00
34927;DHT22;21132;48.308;14.274;2023-04-03T15:12:54;10.40;33.40
34927;DHT22;21132;48.308;14.274;2023-04-03T15:15:22;10.40;33.20
34927;DHT22;21132;48.308;14.274;2023-04-03T15:17:52;10.40;32.70
34927;DHT22;21132;48.308;14.274;2023-04-03T15:20:25;10.30;32.40
34927;DHT22;21132;48.308;14.274;2023-04-03T15:22:52;10.30;33.00
34927;DHT22;21132;48.308;14.274;2023-04-03T15:25:17;10.30;33.20
34927;DHT22;21132;48.308;14.274;2023-04-03T15:27:44;10.30;33.60
34927;DHT22;21132;48.308;14.274;2023-04-03T15:30:16;10.40;34.10
34927;DHT22;21132;48.308;14.274;2023-04-03T15:32:42;10.30;35.00
34927;DHT22;21132;48.308;14.274;2023-04-03T15:35:09;10.30;35.40
34927;DHT22;21132;48.308;14.274;2023-04-03T15:37:34;10.30;35.20
34927;DHT22;21132;48.308;14.274;2023-04-03T15:40:00;10.20;34.40
34927;DHT22;21132;48.308;14.274;2023-04-03T15:42:28;10.20;34.60
34927;DHT22;21132;48.308;14.274;2023-04-03T15:44:54;10.10;34.80
34927;DHT22;21132;48.308;14.274;2023-04-03T15:47:22;10.10;34.70
34927;DHT22;21132;48.308;14.274;2023-04-03T15:49:48;10.00;35.00
34927;DHT22;21132;48.308;14.274;2023-04-03T15:52:14;9.90;35.30
34927;DHT22;21132;48.308;14.274;2023-04-03T15:54:40;9.90;35.90
34927;DHT22;21132;48.308;14.274;2023-04-03T15:57:05;9.90;37.20
34927;DHT22;21132;48.308;14.274;2023-04-03T15:59:31;9.90;37.70
34927;DHT22;21132;48.308;14.274;2023-04-03T16:01:59;9.90;37.60
34927;DHT22;21132;48.308;14.274;2023-04-03T16:04:26;10.00;37.30
34927;DHT22;21132;48.308;14.274;2023-04-03T16:06:52;10.00;37.00
34927;DHT22;21132;48.308;14.274;2023-04-03T16:09:17;9.90;37.00
34927;DHT22;21132;48.308;14.274;2023-04-03T16:11:43;9.80;37.20
34927;DHT22;21132;48.308;14.274;2023-04-03T16:14:09;9.80;37.60
34927;DHT22;21132;48.308;14.274;2023-04-03T16:16:36;9.80;37.70
34927;DHT22;21132;48.308;14.274;2023-04-03T16:19:03;9.80;38.00
34927;DHT22;21132;48.308;14.274;2023-04-03T16:21:30;9.80;38.10
34927;DHT22;21132;48.308;14.274;2023-04-03T16:24:00;9.80;38.40
34927;DHT22;21132;48.308;14.274;2023-04-03T16:26:26;9.80;38.50
34927;DHT22;21132;48.308;14.274;2023-04-03T16:28:53;9.80;38.50
34927;DHT22;21132;48.308;14.274;2023-04-03T16:31:20;9.80;38.60
34927;DHT22;21132;48.308;14.274;2023-04-03T16:33:46;9.70;38.90
34927;DHT22;21132;48.308;14.274;2023-04-03T16:36:12;9.70;39.10
34927;DHT22;21132;48.308;14.274;2023-04-03T16:38:38;9.60;39.20
34927;DHT22;21132;48.308;14.274;2023-04-03T16:41:03;9.60;39.40
34927;DHT22;21132;48.308;14.274;2023-04-03T16:43:34;9.40;39.60
34927;DHT22;21132;48.308;14.274;2023-04-03T16:46:01;9.40;39.90
34927;DHT22;21132;48.308;14.274;2023-04-03T16:48:30;9.40;40.00
34927;DHT22;21132;48.308;14.274;2023-04-03T16:50:56;9.40;40.20
34927;DHT22;21132;48.308;14.274;2023-04-03T16:53:23;9.40;40.20
34927;DHT22;21132;48.308;14.274;2023-04-03T16:55:49;9.40;40.30
34927;DHT22;21132;48.308;14.274;2023-04-03T16:58:16;9.40;40.00
34927;DHT22;21132;48.308;14.274;2023-04-03T17:00:42;9.30;39.80
34927;DHT22;21132;48.308;14.274;2023-04-03T17:03:08;9.30;40.10
34927;DHT22;21132;48.308;14.274;2023-04-03T17:05:34;9.20;39.70
34927;DHT22;21132;48.308;14.274;2023-04-03T17:08:00;9.20;39.70
34927;DHT22;21132;48.308;14.274;2023-04-03T17:10:27;9.20;39.80
34927;DHT22;21132;48.308;14.274;2023-04-03T17:12:54;9.20;39.90
34927;DHT22;21132;48.308;14.274;2023-04-03T17:15:20;9.10;39.90
34927;DHT22;21132;48.308;14.274;2023-04-03T17:17:51;9.10;40.20
34927;DHT22;21132;48.308;14.274;2023-04-03T17:20:18;9.10;40.00
34927;DHT22;21132;48.308;14.274;2023-04-03T17:22:44;9.00;40.00